sensor_id;sensor_type;location;lat;lon;timestamp;P1;durP1;ratioP1;P2;durP2;ratioP2
29466;SDS011;60968;37.490;-122.288;2023-04-03T00:02:36;5.90;;;0.90;;
29466;SDS011;60968;37.490;-122.288;2023-04-03T00:05:37;4.03;;;0.60;;
29466;SDS011;60968;37.490;-122.288;2023-04-03T00:08:39;3.27;;;0.67;;
29466;SDS011;60968;37.490;-122.288;2023-04-03T00:11:41;1.57;;;0.50;;
29466;SDS011;60968;37.490;-122.288;2023-04-03T00:14:43;2.97;;;0.60;;
29466;SDS011;60968;37.490;-122.288;2023-04-03T00:17:45;4.30;;;0.60;;
29466;SDS011;60968;37.490;-122.288;2023-04-03T00:20:46;5.13;;;0.63;;
29466;SDS011;60968;37.490;-122.288;2023-04-03T00:23:47;4.60;;;0.83;;
29466;SDS011;60968;37.490;-122.288;2023-04-03T00:26:48;2.83;;;0.70;;
29466;SDS011;60968;37.490;-122.288;2023-04-03T00:29:50;3.47;;;0.60;;
29466;SDS011;60968;37.490;-122.288;2023-04-03T00:32:51;5.27;;;0.80;;
29466;SDS011;60968;37.490;-122.288;2023-04-03T00:35:53;4.07;;;1.37;;
29466;SDS011;60968;37.490;-122.288;2023-04-03T00:38:54;8.00;;;0.97;;
29466;SDS011;60968;37.490;-122.288;2023-04-03T00:41:56;5.93;;;1.90;;
29466;SDS011;60968;37.490;-122.288;2023-04-03T00:47:58;4.10;;;0.83;;
29466;SDS011;60968;37.490;-122.288;2023-04-03T00:51:01;7.57;;;1.10;;
29466;SDS011;60968;37.490;-122.288;2023-04-03T00:54:05;6.30;;;1.00;;
29466;SDS011;60968;37.490;-122.288;2023-04-03T00:57:07;7.70;;;1.33;;
29466;SDS011;60968;37.490;-122.288;2023-04-03T01:00:10;5.87;;;0.97;;
29466;SDS011;60968;37.490;-122.288;2023-04-03T01:03:14;6.43;;;0.70;;
29466;SDS011;60968;37.490;-122.288;2023-04-03T01:06:16;2.90;;;0.70;;
29466;SDS011;60968;37.490;-122.288;2023-04-03T01:09:21;7.93;;;0.73;;
29466;SDS011;60968;37.490;-122.288;2023-04-03T01:12:23;6.47;;;0.80;;
29466;SDS011;60968;37.490;-122.288;2023-04-03T01:15:30;3.77;;;0.50;;
29466;SDS011;60968;37.490;-122.288;2023-04-03T01:18:31;10.77;;;1.30;;
29466;SDS011;60968;37.490;-122.288;2023-04-03T01:25:05;5.30;;;0.60;;
29466;SDS011;60968;37.490;-122.288;2023-04-03T01:28:07;6.60;;;0.60;;
29466;SDS011;60968;37.490;-122.288;2023-04-03T01:31:22;1.73;;;0.50;;
29466;SDS011;60968;37.490;-122.288;2023-04-03T01:34:25;1.90;;;0.60;;
29466;SDS011;60968;37.490;-122.288;2023-04-03T01:37:26;6.23;;;0.60;;
29466;SDS011;60968;37.490;-122.288;2023-04-03T01:40:27;3.60;;;0.43;;
29466;SDS011;60968;37.490;-122.288;2023-04-03T01:43:29;2.20;;;0.63;;
29466;SDS011;60968;37.490;-122.288;2023-04-03T01:46:31;4.43;;;0.63;;
29466;SDS011;60968;37.490;-122.288;2023-04-03T01:49:33;4.87;;;0.43;;
29466;SDS011;60968;37.490;-122.288;2023-04-03T01:52:34;3.60;;;0.70;;
29466;SDS011;60968;37.490;-122.288;2023-04-03T01:55:35;4.20;;;0.67;;
29466;SDS011;60968;37.490;-122.288;2023-04-03T01:58:37;7.47;;;0.70;;
29466;SDS011;60968;37.490;-122.288;2023-04-03T02:01:39;4.00;;;0.73;;
29466;SDS011;60968;37.490;-122.288;2023-04-03T02:04:40;5.63;;;0.77;;
29466;SDS011;60968;37.490;-122.288;2023-04-03T02:07:43;8.27;;;1.20;;
29466;SDS011;60968;37.490;-122.288;2023-04-03T02:10:46;4.70;;;0.90;;
29466;SDS011;60968;37.490;-122.288;2023-04-03T02:13:49;6.27;;;1.00;;
29466;SDS011;60968;37.490;-122.288;2023-04-03T02:16:50;9.23;;;1.40;;
29466;SDS011;60968;37.490;-122.288;2023-04-03T02:19:50;6.13;;;0.90;;
29466;SDS011;60968;37.490;-122.288;2023-04-03T02:22:52;4.30;;;0.70;;
29466;SDS011;60968;37.490;-122.288;2023-04-03T02:26:01;4.13;;;0.90;;
29466;SDS011;60968;37.490;-122.288;2023-04-03T02:29:08;6.83;;;1.17;;
29466;SDS011;60968;37.490;-122.288;2023-04-03T02:32:09;7.33;;;0.90;;
29466;SDS011;60968;37.490;-122.288;2023-04-03T02:35:13;3.93;;;0.60;;
29466;SDS011;60968;37.490;-122.288;2023-04-03T02:38:15;6.03;;;0.73;;
29466;SDS011;60968;37.490;-122.288;2023-04-03T02:41:16;5.23;;;1.17;;
29466;SDS011;60968;37.490;-122.288;2023-04-03T02:44:17;3.57;;;0.67;;
29466;SDS011;60968;37.490;-122.288;2023-04-03T02:47:18;5.50;;;1.10;;
29466;SDS011;60968;37.490;-122.288;2023-04-03T02:50:20;7.47;;;1.43;;
29466;SDS011;60968;37.490;-122.288;2023-04-03T02:53:22;3.73;;;1.10;;
29466;SDS011;60968;37.490;-122.288;2023-04-03T02:56:26;3.27;;;0.60;;
29466;SDS011;60968;37.490;-122.288;2023-04-03T02:59:28;2.97;;;0.70;;
29466;SDS011;60968;37.490;-122.288;2023-04-03T03:02:29;3.87;;;0.73;;
29466;SDS011;60968;37.490;-122.288;2023-04-03T03:05:30;7.83;;;0.70;;
29466;SDS011;60968;37.490;-122.288;2023-04-03T03:08:31;7.63;;;0.63;;
29466;SDS011;60968;37.490;-122.288;2023-04-03T03:11:34;3.60;;;0.33;;
29466;SDS011;60968;37.490;-122.288;2023-04-03T03:14:36;3.17;;;0.60;;
29466;SDS011;60968;37.490;-122.288;2023-04-03T03:17:37;4.53;;;0.57;;
29466;SDS011;60968;37.490;-122.288;2023-04-03T03:20:38;5.47;;;0.70;;
29466;SDS011;60968;37.490;-122.288;2023-04-03T03:23:39;5.93;;;0.60;;
29466;SDS011;60968;37.490;-122.288;2023-04-03T03:26:40;5.37;;;0.70;;
29466;SDS011;60968;37.490;-122.288;2023-04-03T03:29:42;2.60;;;0.70;;
29466;SDS011;60968;37.490;-122.288;2023-04-03T03:32:43;8.30;;;1.50;;
29466;SDS011;60968;37.490;-122.288;2023-04-03T03:35:44;3.70;;;0.60;;
29466;SDS011;60968;37.490;-122.288;2023-04-03T03:38:46;3.83;;;0.77;;
29466;SDS011;60968;37.490;-122.288;2023-04-03T03:41:47;2.03;;;0.70;;
29466;SDS011;60968;37.490;-122.288;2023-04-03T03:44:48;6.63;;;0.97;;
29466;SDS011;60968;37.490;-122.288;2023-04-03T03:47:48;2.87;;;0.70;;
29466;SDS011;60968;37.490;-122.288;2023-04-03T03:50:49;8.03;;;0.40;;
29466;SDS011;60968;37.490;-122.288;2023-04-03T03:53:50;1.37;;;0.70;;
29466;SDS011;60968;37.490;-122.288;2023-04-03T03:56:51;7.87;;;0.80;;
29466;SDS011;60968;37.490;-122.288;2023-04-03T03:59:55;5.33;;;0.80;;
29466;SDS011;60968;37.490;-122.288;2023-04-03T04:02:56;1.33;;;0.40;;
29466;SDS011;60968;37.490;-122.288;2023-04-03T04:05:57;3.30;;;0.67;;
29466;SDS011;60968;37.490;-122.288;2023-04-03T04:08:57;6.10;;;0.63;;
29466;SDS011;60968;37.490;-122.288;2023-04-03T04:11:58;8.37;;;0.77;;
29466;SDS011;60968;37.490;-122.288;2023-04-03T04:14:59;5.00;;;0.50;;
29466;SDS011;60968;37.490;-122.288;2023-04-03T04:18:00;4.70;;;0.67;;
29466;SDS011;60968;37.490;-122.288;2023-04-03T04:21:02;4.93;;;0.70;;
29466;SDS011;60968;37.490;-122.288;2023-04-03T04:24:03;5.60;;;0.53;;
29466;SDS011;60968;37.490;-122.288;2023-04-03T04:27:04;3.00;;;0.40;;
29466;SDS011;60968;37.490;-122.288;2023-04-03T04:30:05;3.00;;;0.30;;
29466;SDS011;60968;37.490;-122.288;2023-04-03T04:33:07;0.53;;;0.20;;
29466;SDS011;60968;37.490;-122.288;2023-04-03T04:36:09;1.47;;;0.23;;
29466;SDS011;60968;37.490;-122.288;2023-04-03T04:39:10;1.87;;;0.40;;
29466;SDS011;60968;37.490;-122.288;2023-04-03T04:42:11;4.03;;;0.40;;
29466;SDS011;60968;37.490;-122.288;2023-04-03T04:45:13;3.57;;;0.30;;
29466;SDS011;60968;37.490;-122.288;2023-04-03T04:48:17;3.30;;;0.40;;
29466;SDS011;60968;37.490;-122.288;2023-04-03T04:51:18;4.60;;;0.50;;
29466;SDS011;60968;37.490;-122.288;2023-04-03T04:54:19;2.87;;;0.50;;
29466;SDS011;60968;37.490;-122.288;2023-04-03T04:57:20;0.90;;;0.40;;
29466;SDS011;60968;37.490;-122.288;2023-04-03T05:00:21;1.57;;;0.40;;
29466;SDS011;60968;37.490;-122.288;2023-04-03T05:03:22;5.10;;;0.70;;
29466;SDS011;60968;37.490;-122.288;2023-04-03T05:06:24;6.80;;;0.80;;
29466;SDS011;60968;37.490;-122.288;2023-04-03T05:09:25;3.73;;;1.23;;
29466;SDS011;60968;37.490;-122.288;2023-04-03T05:12:26;5.63;;;0.57;;
29466;SDS011;60968;37.490;-122.288;2023-04-03T05:15:28;7.37;;;0.80;;
29466;SDS011;60968;37.490;-122.288;2023-04-03T05:18:29;3.53;;;1.10;;
29466;SDS011;60968;37.490;-122.288;2023-04-03T05:21:31;4.77;;;0.70;;
29466;SDS011;60968;37.490;-122.288;2023-04-03T05:28:31;9.13;;;0.97;;
29466;SDS011;60968;37.490;-122.288;2023-04-03T05:31:32;5.97;;;0.90;;
29466;SDS011;60968;37.490;-122.288;2023-04-03T05:34:33;6.63;;;0.90;;
29466;SDS011;60968;37.490;-122.288;2023-04-03T05:37:34;3.33;;;0.50;;
29466;SDS011;60968;37.490;-122.288;2023-04-03T05:40:35;6.47;;;0.80;;
29466;SDS011;60968;37.490;-122.288;2023-04-03T05:43:36;8.63;;;1.30;;
29466;SDS011;60968;37.490;-122.288;2023-04-03T05:46:38;12.67;;;1.20;;
29466;SDS011;60968;37.490;-122.288;2023-04-03T05:49:39;10.83;;;1.30;;
29466;SDS011;60968;37.490;-122.288;2023-04-03T05:52:40;5.10;;;0.80;;
29466;SDS011;60968;37.490;-122.288;2023-04-03T05:55:45;6.63;;;0.80;;
29466;SDS011;60968;37.490;-122.288;2023-04-03T05:58:47;4.97;;;1.00;;
29466;SDS011;60968;37.490;-122.288;2023-04-03T06:01:51;9.47;;;1.10;;
29466;SDS011;60968;37.490;-122.288;2023-04-03T06:04:52;7.13;;;1.00;;
29466;SDS011;60968;37.490;-122.288;2023-04-03T06:07:53;15.40;;;1.10;;
29466;SDS011;60968;37.490;-122.288;2023-04-03T06:10:54;8.63;;;1.30;;
29466;SDS011;60968;37.490;-122.288;2023-04-03T06:13:56;6.90;;;1.40;;
29466;SDS011;60968;37.490;-122.288;2023-04-03T06:16:57;3.87;;;0.70;;
29466;SDS011;60968;37.490;-122.288;2023-04-03T06:19:57;15.70;;;2.00;;
29466;SDS011;60968;37.490;-122.288;2023-04-03T06:22:58;9.67;;;1.30;;
29466;SDS011;60968;37.490;-122.288;2023-04-03T06:25:59;8.17;;;1.50;;
29466;SDS011;60968;37.490;-122.288;2023-04-03T06:29:00;9.67;;;1.60;;
29466;SDS011;60968;37.490;-122.288;2023-04-03T06:32:02;8.77;;;1.73;;
29466;SDS011;60968;37.490;-122.288;2023-04-03T06:35:04;3.77;;;0.90;;
29466;SDS011;60968;37.490;-122.288;2023-04-03T06:38:07;9.53;;;1.53;;
29466;SDS011;60968;37.490;-122.288;2023-04-03T06:41:08;12.40;;;1.50;;
29466;SDS011;60968;37.490;-122.288;2023-04-03T06:44:10;11.80;;;1.10;;
29466;SDS011;60968;37.490;-122.288;2023-04-03T06:47:12;10.20;;;1.47;;
29466;SDS011;60968;37.490;-122.288;2023-04-03T06:50:16;11.30;;;1.87;;
29466;SDS011;60968;37.490;-122.288;2023-04-03T06:53:17;4.27;;;0.90;;
29466;SDS011;60968;37.490;-122.288;2023-04-03T06:56:18;7.43;;;1.20;;
29466;SDS011;60968;37.490;-122.288;2023-04-03T06:59:19;5.97;;;0.83;;
29466;SDS011;60968;37.490;-122.288;2023-04-03T07:02:20;6.47;;;0.97;;
29466;SDS011;60968;37.490;-122.288;2023-04-03T07:05:23;10.57;;;1.00;;
29466;SDS011;60968;37.490;-122.288;2023-04-03T07:08:26;13.60;;;1.23;;
29466;SDS011;60968;37.490;-122.288;2023-04-03T07:11:27;5.47;;;1.30;;
29466;SDS011;60968;37.490;-122.288;2023-04-03T07:14:28;4.87;;;1.20;;
29466;SDS011;60968;37.490;-122.288;2023-04-03T07:17:30;4.30;;;0.77;;
29466;SDS011;60968;37.490;-122.288;2023-04-03T07:20:33;8.73;;;1.90;;
29466;SDS011;60968;37.490;-122.288;2023-04-03T07:23:33;11.07;;;0.97;;
29466;SDS011;60968;37.490;-122.288;2023-04-03T07:26:34;14.30;;;1.67;;
29466;SDS011;60968;37.490;-122.288;2023-04-03T07:29:35;7.67;;;1.03;;
29466;SDS011;60968;37.490;-122.288;2023-04-03T07:32:36;9.43;;;1.03;;
29466;SDS011;60968;37.490;-122.288;2023-04-03T07:35:37;6.27;;;1.00;;
29466;SDS011;60968;37.490;-122.288;2023-04-03T07:38:39;10.07;;;1.77;;
29466;SDS011;60968;37.490;-122.288;2023-04-03T07:41:40;12.23;;;1.57;;
29466;SDS011;60968;37.490;-122.288;2023-04-03T07:44:42;8.30;;;0.90;;
29466;SDS011;60968;37.490;-122.288;2023-04-03T07:47:43;6.87;;;1.10;;
29466;SDS011;60968;37.490;-122.288;2023-04-03T07:50:44;8.23;;;1.43;;
29466;SDS011;60968;37.490;-122.288;2023-04-03T07:53:45;10.17;;;1.33;;
29466;SDS011;60968;37.490;-122.288;2023-04-03T07:56:46;6.73;;;1.20;;
29466;SDS011;60968;37.490;-122.288;2023-04-03T07:59:48;10.50;;;1.30;;
29466;SDS011;60968;37.490;-122.288;2023-04-03T08:02:48;10.87;;;1.53;;
29466;SDS011;60968;37.490;-122.288;2023-04-03T08:05:49;10.40;;;1.43;;
29466;SDS011;60968;37.490;-122.288;2023-04-03T08:08:53;16.53;;;1.40;;
29466;SDS011;60968;37.490;-122.288;2023-04-03T08:11:54;8.27;;;1.27;;
29466;SDS011;60968;37.490;-122.288;2023-04-03T08:18:22;11.20;;;1.10;;
29466;SDS011;60968;37.490;-122.288;2023-04-03T08:21:23;9.20;;;1.10;;
29466;SDS011;60968;37.490;-122.288;2023-04-03T08:24:25;12.23;;;1.70;;
29466;SDS011;60968;37.490;-122.288;2023-04-03T08:27:26;6.27;;;1.10;;
29466;SDS011;60968;37.490;-122.288;2023-04-03T08:30:27;9.73;;;1.20;;
29466;SDS011;60968;37.490;-122.288;2023-04-03T08:33:28;5.73;;;1.37;;
29466;SDS011;60968;37.490;-122.288;2023-04-03T08:36:29;14.97;;;1.40;;
29466;SDS011;60968;37.490;-122.288;2023-04-03T08:39:30;12.40;;;1.47;;
29466;SDS011;60968;37.490;-122.288;2023-04-03T08:42:52;10.43;;;1.60;;
29466;SDS011;60968;37.490;-122.288;2023-04-03T08:45:55;12.00;;;1.60;;
29466;SDS011;60968;37.490;-122.288;2023-04-03T08:48:57;11.83;;;1.90;;
29466;SDS011;60968;37.490;-122.288;2023-04-03T08:52:00;10.60;;;1.27;;
29466;SDS011;60968;37.490;-122.288;2023-04-03T08:58:24;9.30;;;1.60;;
29466;SDS011;60968;37.490;-122.288;2023-04-03T09:01:33;18.83;;;2.07;;
29466;SDS011;60968;37.490;-122.288;2023-04-03T09:04:38;11.83;;;1.70;;
29466;SDS011;60968;37.490;-122.288;2023-04-03T09:07:42;8.13;;;1.67;;
29466;SDS011;60968;37.490;-122.288;2023-04-03T09:10:47;8.23;;;1.40;;
29466;SDS011;60968;37.490;-122.288;2023-04-03T09:17:14;7.17;;;1.67;;
29466;SDS011;60968;37.490;-122.288;2023-04-03T09:23:50;12.70;;;1.73;;
29466;SDS011;60968;37.490;-122.288;2023-04-03T09:27:03;4.60;;;1.23;;
29466;SDS011;60968;37.490;-122.288;2023-04-03T09:30:12;7.50;;;1.37;;
29466;SDS011;60968;37.490;-122.288;2023-04-03T09:33:15;10.70;;;1.37;;
29466;SDS011;60968;37.490;-122.288;2023-04-03T09:39:53;8.60;;;1.27;;
29466;SDS011;60968;37.490;-122.288;2023-04-03T09:42:56;12.37;;;1.63;;
29466;SDS011;60968;37.490;-122.288;2023-04-03T09:46:17;10.53;;;1.50;;
29466;SDS011;60968;37.490;-122.288;2023-04-03T09:49:26;12.10;;;1.40;;
29466;SDS011;60968;37.490;-122.288;2023-04-03T09:52:28;10.47;;;1.87;;
29466;SDS011;60968;37.490;-122.288;2023-04-03T09:55:29;9.37;;;1.93;;
29466;SDS011;60968;37.490;-122.288;2023-04-03T09:58:40;8.47;;;1.33;;
29466;SDS011;60968;37.490;-122.288;2023-04-03T10:02:00;17.70;;;2.60;;
29466;SDS011;60968;37.490;-122.288;2023-04-03T10:08:37;17.23;;;2.20;;
29466;SDS011;60968;37.490;-122.288;2023-04-03T10:11:38;8.27;;;1.67;;
29466;SDS011;60968;37.490;-122.288;2023-04-03T10:15:00;10.80;;;1.67;;
29466;SDS011;60968;37.490;-122.288;2023-04-03T10:18:02;10.80;;;1.40;;
29466;SDS011;60968;37.490;-122.288;2023-04-03T10:24:41;18.60;;;2.17;;
29466;SDS011;60968;37.490;-122.288;2023-04-03T10:31:24;8.03;;;1.50;;
29466;SDS011;60968;37.490;-122.288;2023-04-03T10:41:30;8.97;;;1.33;;
29466;SDS011;60968;37.490;-122.288;2023-04-03T10:48:10;7.07;;;1.00;;
29466;SDS011;60968;37.490;-122.288;2023-04-03T10:58:43;9.53;;;1.23;;
29466;SDS011;60968;37.490;-122.288;2023-04-03T11:01:55;8.10;;;1.10;;
29466;SDS011;60968;37.490;-122.288;2023-04-03T11:05:00;11.60;;;0.83;;
29466;SDS011;60968;37.490;-122.288;2023-04-03T11:12:04;5.90;;;0.90;;
29466;SDS011;60968;37.490;-122.288;2023-04-03T11:15:15;5.90;;;0.80;;
29466;SDS011;60968;37.490;-122.288;2023-04-03T11:18:21;11.63;;;1.20;;
29466;SDS011;60968;37.490;-122.288;2023-04-03T11:21:29;4.80;;;0.97;;
29466;SDS011;60968;37.490;-122.288;2023-04-03T11:24:36;11.10;;;1.87;;
29466;SDS011;60968;37.490;-122.288;2023-04-03T11:27:58;10.30;;;1.20;;
29466;SDS011;60968;37.490;-122.288;2023-04-03T11:31:14;8.83;;;1.33;;
29466;SDS011;60968;37.490;-122.288;2023-04-03T11:34:47;11.87;;;2.50;;
29466;SDS011;60968;37.490;-122.288;2023-04-03T11:37:51;7.07;;;0.97;;
29466;SDS011;60968;37.490;-122.288;2023-04-03T11:40:54;9.30;;;1.47;;
29466;SDS011;60968;37.490;-122.288;2023-04-03T11:47:06;8.80;;;1.00;;
29466;SDS011;60968;37.490;-122.288;2023-04-03T11:50:27;9.87;;;1.40;;
29466;SDS011;60968;37.490;-122.288;2023-04-03T11:53:40;12.40;;;1.93;;
29466;SDS011;60968;37.490;-122.288;2023-04-03T11:56:42;4.93;;;1.00;;
29466;SDS011;60968;37.490;-122.288;2023-04-03T11:59:42;7.00;;;1.40;;
29466;SDS011;60968;37.490;-122.288;2023-04-03T12:02:43;9.73;;;1.47;;
29466;SDS011;60968;37.490;-122.288;2023-04-03T12:05:44;9.30;;;1.00;;
29466;SDS011;60968;37.490;-122.288;2023-04-03T12:08:47;4.63;;;0.77;;
29466;SDS011;60968;37.490;-122.288;2023-04-03T12:11:52;3.67;;;0.80;;
29466;SDS011;60968;37.490;-122.288;2023-04-03T12:14:54;9.37;;;1.07;;
29466;SDS011;60968;37.490;-122.288;2023-04-03T12:17:56;10.63;;;1.30;;
29466;SDS011;60968;37.490;-122.288;2023-04-03T12:20:57;9.33;;;1.20;;
29466;SDS011;60968;37.490;-122.288;2023-04-03T12:24:00;11.87;;;0.90;;
29466;SDS011;60968;37.490;-122.288;2023-04-03T12:30:27;5.90;;;1.20;;
29466;SDS011;60968;37.490;-122.288;2023-04-03T12:33:46;3.83;;;0.70;;
29466;SDS011;60968;37.490;-122.288;2023-04-03T12:47:34;7.17;;;1.00;;
29466;SDS011;60968;37.490;-122.288;2023-04-03T12:50:36;7.97;;;1.47;;
29466;SDS011;60968;37.490;-122.288;2023-04-03T12:53:39;4.10;;;0.80;;
29466;SDS011;60968;37.490;-122.288;2023-04-03T12:56:41;5.63;;;1.00;;
29466;SDS011;60968;37.490;-122.288;2023-04-03T12:59:44;5.80;;;0.83;;
29466;SDS011;60968;37.490;-122.288;2023-04-03T13:02:45;9.83;;;0.90;;
29466;SDS011;60968;37.490;-122.288;2023-04-03T13:05:47;8.30;;;1.10;;
29466;SDS011;60968;37.490;-122.288;2023-04-03T13:08:52;6.37;;;1.53;;
29466;SDS011;60968;37.490;-122.288;2023-04-03T13:12:01;9.70;;;1.13;;
29466;SDS011;60968;37.490;-122.288;2023-04-03T13:15:14;9.37;;;0.50;;
29466;SDS011;60968;37.490;-122.288;2023-04-03T13:18:34;3.90;;;1.13;;
29466;SDS011;60968;37.490;-122.288;2023-04-03T13:21:36;7.23;;;1.13;;
29466;SDS011;60968;37.490;-122.288;2023-04-03T13:24:38;4.87;;;0.97;;
29466;SDS011;60968;37.490;-122.288;2023-04-03T13:27:39;9.93;;;1.10;;
29466;SDS011;60968;37.490;-122.288;2023-04-03T13:30:41;6.00;;;0.90;;
29466;SDS011;60968;37.490;-122.288;2023-04-03T13:33:58;5.37;;;0.80;;
29466;SDS011;60968;37.490;-122.288;2023-04-03T13:37:20;7.57;;;0.90;;
29466;SDS011;60968;37.490;-122.288;2023-04-03T13:40:26;5.17;;;0.83;;
29466;SDS011;60968;37.490;-122.288;2023-04-03T13:46:54;4.87;;;0.77;;
29466;SDS011;60968;37.490;-122.288;2023-04-03T13:53:13;6.17;;;0.90;;
29466;SDS011;60968;37.490;-122.288;2023-04-03T13:56:37;6.47;;;0.80;;
29466;SDS011;60968;37.490;-122.288;2023-04-03T13:59:39;4.23;;;0.83;;
29466;SDS011;60968;37.490;-122.288;2023-04-03T14:02:42;12.33;;;0.97;;
29466;SDS011;60968;37.490;-122.288;2023-04-03T14:05:43;3.73;;;0.50;;
29466;SDS011;60968;37.490;-122.288;2023-04-03T14:08:44;3.40;;;0.90;;
29466;SDS011;60968;37.490;-122.288;2023-04-03T14:11:47;2.43;;;0.50;;
29466;SDS011;60968;37.490;-122.288;2023-04-03T14:14:50;2.83;;;0.60;;
29466;SDS011;60968;37.490;-122.288;2023-04-03T14:17:51;6.13;;;0.80;;
29466;SDS011;60968;37.490;-122.288;2023-04-03T14:20:52;7.27;;;0.80;;
29466;SDS011;60968;37.490;-122.288;2023-04-03T14:23:53;3.47;;;0.63;;
29466;SDS011;60968;37.490;-122.288;2023-04-03T14:26:54;2.77;;;0.73;;
29466;SDS011;60968;37.490;-122.288;2023-04-03T14:29:56;3.47;;;0.43;;
29466;SDS011;60968;37.490;-122.288;2023-04-03T14:32:59;8.67;;;0.93;;
29466;SDS011;60968;37.490;-122.288;2023-04-03T14:36:00;3.87;;;0.40;;
29466;SDS011;60968;37.490;-122.288;2023-04-03T14:39:02;5.50;;;0.60;;
29466;SDS011;60968;37.490;-122.288;2023-04-03T14:42:05;6.70;;;0.80;;
29466;SDS011;60968;37.490;-122.288;2023-04-03T14:45:08;4.23;;;0.70;;
29466;SDS011;60968;37.490;-122.288;2023-04-03T14:48:20;3.37;;;0.80;;
29466;SDS011;60968;37.490;-122.288;2023-04-03T14:51:25;8.63;;;0.50;;
29466;SDS011;60968;37.490;-122.288;2023-04-03T14:54:26;5.77;;;0.60;;
29466;SDS011;60968;37.490;-122.288;2023-04-03T14:57:28;7.50;;;0.50;;
29466;SDS011;60968;37.490;-122.288;2023-04-03T15:00:30;5.43;;;0.80;;
29466;SDS011;60968;37.490;-122.288;2023-04-03T15:03:31;3.33;;;0.73;;
29466;SDS011;60968;37.490;-122.288;2023-04-03T15:06:33;4.97;;;0.67;;
29466;SDS011;60968;37.490;-122.288;2023-04-03T15:09:35;5.77;;;0.80;;
29466;SDS011;60968;37.490;-122.288;2023-04-03T15:12:45;6.40;;;0.60;;
29466;SDS011;60968;37.490;-122.288;2023-04-03T15:15:49;4.63;;;0.80;;
29466;SDS011;60968;37.490;-122.288;2023-04-03T15:18:51;5.20;;;0.60;;
29466;SDS011;60968;37.490;-122.288;2023-04-03T15:21:52;9.10;;;0.97;;
29466;SDS011;60968;37.490;-122.288;2023-04-03T15:24:53;1.80;;;0.87;;
29466;SDS011;60968;37.490;-122.288;2023-04-03T15:27:54;3.80;;;1.00;;
29466;SDS011;60968;37.490;-122.288;2023-04-03T15:30:56;2.97;;;1.30;;
29466;SDS011;60968;37.490;-122.288;2023-04-03T15:33:58;4.90;;;1.10;;
29466;SDS011;60968;37.490;-122.288;2023-04-03T15:37:00;4.10;;;1.08;;
29466;SDS011;60968;37.490;-122.288;2023-04-03T15:40:03;1.25;;;0.77;;
29466;SDS011;60968;37.490;-122.288;2023-04-03T15:43:06;3.30;;;1.08;;
29466;SDS011;60968;37.490;-122.288;2023-04-03T15:46:07;4.03;;;0.82;;
29466;SDS011;60968;37.490;-122.288;2023-04-03T15:49:09;4.03;;;0.80;;
29466;SDS011;60968;37.490;-122.288;2023-04-03T15:52:12;3.93;;;0.87;;
29466;SDS011;60968;37.490;-122.288;2023-04-03T15:55:13;4.47;;;0.73;;
29466;SDS011;60968;37.490;-122.288;2023-04-03T15:58:15;4.30;;;0.73;;
29466;SDS011;60968;37.490;-122.288;2023-04-03T16:01:16;2.87;;;0.70;;
29466;SDS011;60968;37.490;-122.288;2023-04-03T16:04:17;4.47;;;0.87;;
29466;SDS011;60968;37.490;-122.288;2023-04-03T16:07:19;4.37;;;0.47;;
29466;SDS011;60968;37.490;-122.288;2023-04-03T16:10:21;4.13;;;0.70;;
29466;SDS011;60968;37.490;-122.288;2023-04-03T16:13:22;3.70;;;0.87;;
29466;SDS011;60968;37.490;-122.288;2023-04-03T16:16:24;4.57;;;0.60;;
29466;SDS011;60968;37.490;-122.288;2023-04-03T16:19:25;4.40;;;0.50;;
29466;SDS011;60968;37.490;-122.288;2023-04-03T16:22:29;2.00;;;0.37;;
29466;SDS011;60968;37.490;-122.288;2023-04-03T16:25:32;3.80;;;0.60;;
29466;SDS011;60968;37.490;-122.288;2023-04-03T16:28:33;3.70;;;0.60;;
29466;SDS011;60968;37.490;-122.288;2023-04-03T16:31:34;3.80;;;0.80;;
29466;SDS011;60968;37.490;-122.288;2023-04-03T16:38:13;1.70;;;0.40;;
29466;SDS011;60968;37.490;-122.288;2023-04-03T16:41:14;5.00;;;0.83;;
29466;SDS011;60968;37.490;-122.288;2023-04-03T16:44:16;4.37;;;0.80;;
29466;SDS011;60968;37.490;-122.288;2023-04-03T16:47:17;3.40;;;0.50;;
29466;SDS011;60968;37.490;-122.288;2023-04-03T16:50:18;2.70;;;0.60;;
29466;SDS011;60968;37.490;-122.288;2023-04-03T16:53:19;2.30;;;0.50;;
29466;SDS011;60968;37.490;-122.288;2023-04-03T16:56:21;4.33;;;0.53;;
29466;SDS011;60968;37.490;-122.288;2023-04-03T16:59:23;6.00;;;1.33;;
29466;SDS011;60968;37.490;-122.288;2023-04-03T17:02:24;4.53;;;0.33;;
29466;SDS011;60968;37.490;-122.288;2023-04-03T17:05:25;3.43;;;0.50;;
29466;SDS011;60968;37.490;-122.288;2023-04-03T17:08:31;3.07;;;0.70;;
29466;SDS011;60968;37.490;-122.288;2023-04-03T17:11:32;2.47;;;0.70;;
29466;SDS011;60968;37.490;-122.288;2023-04-03T17:14:33;3.73;;;0.73;;
29466;SDS011;60968;37.490;-122.288;2023-04-03T17:17:37;3.13;;;0.70;;
29466;SDS011;60968;37.490;-122.288;2023-04-03T17:20:41;1.70;;;0.70;;
29466;SDS011;60968;37.490;-122.288;2023-04-03T17:23:43;3.37;;;1.13;;
29466;SDS011;60968;37.490;-122.288;2023-04-03T17:26:47;5.17;;;1.13;;
29466;SDS011;60968;37.490;-122.288;2023-04-03T17:29:48;2.97;;;0.80;;
29466;SDS011;60968;37.490;-122.288;2023-04-03T17:32:49;6.30;;;1.10;;
29466;SDS011;60968;37.490;-122.288;2023-04-03T17:35:50;6.10;;;1.30;;
29466;SDS011;60968;37.490;-122.288;2023-04-03T17:38:52;2.47;;;1.25;;
29466;SDS011;60968;37.490;-122.288;2023-04-03T17:41:54;3.47;;;1.20;;
29466;SDS011;60968;37.490;-122.288;2023-04-03T17:44:55;5.72;;;1.23;;
29466;SDS011;60968;37.490;-122.288;2023-04-03T17:47:56;8.25;;;1.23;;
29466;SDS011;60968;37.490;-122.288;2023-04-03T17:50:57;3.85;;;1.42;;
29466;SDS011;60968;37.490;-122.288;2023-04-03T17:54:00;2.47;;;1.13;;
29466;SDS011;60968;37.490;-122.288;2023-04-03T17:57:04;2.85;;;1.20;;
29466;SDS011;60968;37.490;-122.288;2023-04-03T18:00:07;6.50;;;1.50;;
29466;SDS011;60968;37.490;-122.288;2023-04-03T18:03:09;4.80;;;1.30;;
29466;SDS011;60968;37.490;-122.288;2023-04-03T18:06:11;5.07;;;1.27;;
29466;SDS011;60968;37.490;-122.288;2023-04-03T18:09:20;5.87;;;0.90;;
29466;SDS011;60968;37.490;-122.288;2023-04-03T18:12:32;3.93;;;1.00;;
29466;SDS011;60968;37.490;-122.288;2023-04-03T18:15:35;4.80;;;1.00;;
29466;SDS011;60968;37.490;-122.288;2023-04-03T18:18:38;5.77;;;0.90;;
29466;SDS011;60968;37.490;-122.288;2023-04-03T18:21:40;4.73;;;1.40;;
29466;SDS011;60968;37.490;-122.288;2023-04-03T18:24:41;3.73;;;1.00;;
29466;SDS011;60968;37.490;-122.288;2023-04-03T18:27:44;6.23;;;1.20;;
29466;SDS011;60968;37.490;-122.288;2023-04-03T18:30:47;4.40;;;0.80;;
29466;SDS011;60968;37.490;-122.288;2023-04-03T18:33:51;2.70;;;0.60;;
29466;SDS011;60968;37.490;-122.288;2023-04-03T18:36:54;2.50;;;0.60;;
29466;SDS011;60968;37.490;-122.288;2023-04-03T18:39:55;4.37;;;0.80;;
29466;SDS011;60968;37.490;-122.288;2023-04-03T18:42:57;3.33;;;0.80;;
29466;SDS011;60968;37.490;-122.288;2023-04-03T18:46:01;4.83;;;0.90;;
29466;SDS011;60968;37.490;-122.288;2023-04-03T18:49:02;5.40;;;0.90;;
29466;SDS011;60968;37.490;-122.288;2023-04-03T18:52:04;2.50;;;0.80;;
29466;SDS011;60968;37.490;-122.288;2023-04-03T18:55:07;3.33;;;0.70;;
29466;SDS011;60968;37.490;-122.288;2023-04-03T18:58:10;5.07;;;0.60;;
29466;SDS011;60968;37.490;-122.288;2023-04-03T19:01:10;5.07;;;1.10;;